This is the latest recevied weather packets stored in our database for station/object PY5TG-13. If no packets are shown the sender has not sent any weather packets the latest 1 day(s).
| Time | Temp. | Humidity | Pressure | Rain* | Wind** | Luminosity | Snow |
|---|---|---|---|---|---|---|---|
| 1778097012 | 23.33° C | - | - | 0 mm | - | - | - |
| 1778096471 | 24.44° C | - | - | 0 mm | - | - | - |
| 1778094612 | 26.67° C | 59% | 1015 hPa | 0 mm | - | 113 W/m² | - |
| 1778094071 | 26.67° C | 59% | 1014.9 hPa | 0 mm | - | 122 W/m² | - |
| 1778093411 | 27.78° C | 56% | 1014.7 hPa | 0 mm | - | 149 W/m² | - |
| 1778092812 | 26.67° C | 56% | 1014.9 hPa | 0 mm | - | 166 W/m² | - |
| 1778091613 | 27.22° C | 57% | 1015 hPa | 0 mm | - | 181 W/m² | - |
| 1778091011 | 26.67° C | 58% | 1015.2 hPa | 0 mm | - | 182 W/m² | - |
| 1778090471 | 27.22° C | 58% | 1015.2 hPa | 0 mm | - | 204 W/m² | - |
| 1778089211 | 27.78° C | 57% | 1015.1 hPa | 0 mm | - | 265 W/m² | - |
| 1778088012 | 27.78° C | 56% | 1015.3 hPa | 0 mm | - | 293 W/m² | - |
| 1778087471 | 27.22° C | 54% | 1015.5 hPa | 0 mm | - | 300 W/m² | - |
| 1778086811 | 27.22° C | 55% | 1015.6 hPa | 0 mm | - | 324 W/m² | - |
| 1778086212 | 27.78° C | 56% | 1015.8 hPa | 0 mm | - | 330 W/m² | - |
| 1778085671 | 27.22° C | 57% | 1016 hPa | 0 mm | - | 332 W/m² | - |
| 1778085011 | 27.22° C | 57% | 1016.1 hPa | 0 mm | - | 344 W/m² | - |
| 1778084412 | 27.22° C | 58% | 1016 hPa | 0 mm | - | 360 W/m² | - |
| 1778083812 | 27.22° C | 60% | 1016.3 hPa | 0 mm | - | 368 W/m² | - |
| 1778082612 | 27.22° C | 59% | 1016.6 hPa | 0 mm | - | 368 W/m² | - |
| 1778079671 | 26.11° C | - | - | 0 mm | - | - | - |
| 1778078411 | 26.11° C | 62% | 1018.2 hPa | 0 mm | - | 366 W/m² | - |
| 1778076012 | 25° C | 71% | 1019 hPa | 0 mm | - | 330 W/m² | - |
| 1778073611 | 25° C | 72% | 1019.5 hPa | 0 mm | - | 279 W/m² | - |
| 1778073011 | 25° C | 72% | 1019.6 hPa | 0 mm | - | 277 W/m² | - |
| 1778071211 | 23.89° C | 75% | 1020 hPa | 0 mm | - | 234 W/m² | - |
* Rain latest hour (hover to see other rain measurements)
** Current wind speed in m/s (hover to see current wind gust speed)